createdAt,value
2022-10-03T00:00:36.615Z,10.70
2022-10-03T00:03:35.943Z,10.70
2022-10-03T00:06:10.660Z,10.70
2022-10-03T00:09:11.000Z,10.60
2022-10-03T00:11:47.323Z,10.60
2022-10-03T00:14:24.496Z,10.60
2022-10-03T00:17:03.303Z,10.70
2022-10-03T00:19:44.121Z,10.70
2022-10-03T00:22:23.879Z,10.70
2022-10-03T00:25:03.995Z,10.70
2022-10-03T00:27:38.643Z,10.70
2022-10-03T00:30:16.600Z,10.60
2022-10-03T00:33:09.082Z,10.60
2022-10-03T00:35:49.189Z,10.70
2022-10-03T00:38:40.257Z,10.70
2022-10-03T00:41:25.294Z,10.70
2022-10-03T00:44:37.220Z,10.80
2022-10-03T00:47:32.215Z,10.80
2022-10-03T00:50:28.328Z,10.80
2022-10-03T00:53:16.767Z,10.90
2022-10-03T00:56:03.826Z,10.90
2022-10-03T00:58:52.727Z,11.00
2022-10-03T01:01:32.743Z,11.00
2022-10-03T01:04:17.403Z,11.10
2022-10-03T01:06:51.028Z,11.00
2022-10-03T01:09:43.961Z,11.00
2022-10-03T01:12:30.375Z,10.90
2022-10-03T01:15:17.599Z,10.90
2022-10-03T01:18:00.419Z,10.90
2022-10-03T01:20:36.479Z,10.80
2022-10-03T01:23:39.189Z,10.80
2022-10-03T01:26:29.870Z,10.90
2022-10-03T01:29:21.641Z,10.90
2022-10-03T01:31:57.086Z,10.80
2022-10-03T01:34:32.084Z,10.80
2022-10-03T01:37:08.803Z,10.80
2022-10-03T01:39:45.144Z,10.80
2022-10-03T01:42:20.666Z,10.80
2022-10-03T01:45:10.655Z,10.80
2022-10-03T01:47:51.472Z,10.80
2022-10-03T01:50:26.520Z,10.80
2022-10-03T01:53:01.324Z,10.80
2022-10-03T01:55:38.838Z,10.80
2022-10-03T01:58:12.623Z,10.90
2022-10-03T02:00:48.492Z,10.80
2022-10-03T02:03:25.595Z,10.80
2022-10-03T02:06:01.907Z,10.80
2022-10-03T02:08:45.371Z,10.80
2022-10-03T02:11:29.763Z,10.80
2022-10-03T02:14:07.305Z,10.80
2022-10-03T02:16:44.436Z,10.70
2022-10-03T02:19:23.958Z,10.80
2022-10-03T02:21:54.418Z,10.80
2022-10-03T02:24:42.413Z,10.70
2022-10-03T02:27:41.949Z,10.70
2022-10-03T02:30:18.922Z,10.70
2022-10-03T02:33:34.642Z,10.60
2022-10-03T02:36:49.719Z,10.50
2022-10-03T02:39:46.832Z,10.50
2022-10-03T02:42:41.858Z,10.50
2022-10-03T02:45:37.954Z,10.50
2022-10-03T02:48:57.587Z,10.60
2022-10-03T02:52:09.064Z,10.50
2022-10-03T02:55:05.319Z,10.50
2022-10-03T02:58:07.014Z,10.50
2022-10-03T03:00:50.411Z,10.50
2022-10-03T03:03:40.533Z,10.50
2022-10-03T03:06:39.141Z,10.50
2022-10-03T03:09:37.977Z,10.50
2022-10-03T03:12:41.409Z,10.50
2022-10-03T03:15:39.353Z,10.50
2022-10-03T03:18:17.421Z,10.40
2022-10-03T03:21:00.109Z,10.50
2022-10-03T03:23:46.884Z,10.40
2022-10-03T03:26:36.631Z,10.50
2022-10-03T03:29:18.316Z,10.40
2022-10-03T03:31:55.332Z,10.40
2022-10-03T03:34:30.087Z,10.40
2022-10-03T03:37:06.136Z,10.50
2022-10-03T03:39:54.955Z,10.50
2022-10-03T03:42:40.605Z,10.40
2022-10-03T03:45:31.560Z,10.40
2022-10-03T03:48:12.919Z,10.30
2022-10-03T03:50:49.314Z,10.40
2022-10-03T03:53:49.899Z,10.40
2022-10-03T03:56:34.083Z,10.30
2022-10-03T03:59:19.302Z,10.30
2022-10-03T04:02:07.233Z,10.30
2022-10-03T04:04:46.530Z,10.30
2022-10-03T04:07:27.928Z,10.20
2022-10-03T04:10:15.072Z,10.20
2022-10-03T04:13:11.695Z,10.10
2022-10-03T04:15:56.726Z,10.10
2022-10-03T04:18:59.866Z,10.10
2022-10-03T04:22:12.506Z,10.10
2022-10-03T04:25:06.762Z,10.10
2022-10-03T04:27:55.457Z,10.10
2022-10-03T04:30:33.531Z,10.20
2022-10-03T04:33:18.197Z,10.20
2022-10-03T04:36:16.294Z,10.10
2022-10-03T04:38:55.448Z,10.10
2022-10-03T04:41:30.361Z,10.10
2022-10-03T04:44:12.345Z,10.10
2022-10-03T04:46:47.179Z,10.10
2022-10-03T04:49:26.301Z,10.20
2022-10-03T04:52:01.895Z,10.20
2022-10-03T04:54:48.228Z,10.30
2022-10-03T04:57:26.687Z,10.30
2022-10-03T05:00:08.790Z,10.30
2022-10-03T05:02:46.786Z,10.30
2022-10-03T05:05:51.491Z,10.30
2022-10-03T05:08:37.439Z,10.20
2022-10-03T05:11:21.653Z,10.30
2022-10-03T05:14:02.269Z,10.30
2022-10-03T05:16:40.285Z,10.40
2022-10-03T05:19:28.600Z,10.30
2022-10-03T05:22:03.749Z,10.40
2022-10-03T05:24:40.114Z,10.40
2022-10-03T05:27:20.063Z,10.40
2022-10-03T05:29:58.716Z,10.40
2022-10-03T05:32:34.449Z,10.40
2022-10-03T05:35:24.237Z,10.40
2022-10-03T05:38:19.213Z,10.40
2022-10-03T05:41:03.170Z,10.40
2022-10-03T05:43:46.318Z,10.30
2022-10-03T05:46:24.540Z,10.40
2022-10-03T05:49:04.830Z,10.30
2022-10-03T05:51:49.649Z,10.30
2022-10-03T05:54:48.844Z,10.50
2022-10-03T05:57:43.007Z,10.30
2022-10-03T06:00:21.830Z,10.30
2022-10-03T06:03:19.095Z,10.30
2022-10-03T06:06:01.701Z,10.40
2022-10-03T06:09:20.641Z,10.30
2022-10-03T06:12:03.440Z,10.40
2022-10-03T06:15:03.338Z,10.40
2022-10-03T06:17:56.383Z,10.40
2022-10-03T06:21:11.312Z,10.50
2022-10-03T06:23:59.559Z,10.50
2022-10-03T06:27:01.823Z,10.60
2022-10-03T06:30:04.146Z,10.70
2022-10-03T06:33:08.058Z,10.60
2022-10-03T06:36:09.437Z,10.70
2022-10-03T06:39:41.544Z,10.70
2022-10-03T06:42:46.405Z,10.80
2022-10-03T06:45:51.021Z,10.90
2022-10-03T06:49:01.863Z,10.90
2022-10-03T06:51:51.585Z,11.00
2022-10-03T06:54:53.794Z,11.00
2022-10-03T06:57:45.443Z,11.10
2022-10-03T07:00:20.451Z,11.30
2022-10-03T07:03:11.369Z,11.40
2022-10-03T07:06:05.281Z,11.50
2022-10-03T07:09:07.494Z,11.70
2022-10-03T07:11:56.133Z,11.70
2022-10-03T07:14:55.451Z,11.90
2022-10-03T07:17:47.562Z,12.20
2022-10-03T07:20:48.858Z,12.70
2022-10-03T07:23:43.831Z,12.50
2022-10-03T07:26:45.920Z,13.40
2022-10-03T07:29:23.716Z,13.20
2022-10-03T07:32:17.997Z,13.30
2022-10-03T07:35:13.495Z,13.50
2022-10-03T07:38:24.919Z,13.90
2022-10-03T07:41:22.571Z,14.10
2022-10-03T07:44:23.590Z,14.80
2022-10-03T07:47:16.547Z,15.00
2022-10-03T07:50:18.657Z,15.30
2022-10-03T07:53:02.417Z,15.20
2022-10-03T07:55:49.558Z,15.60
2022-10-03T07:58:37.786Z,15.30
2022-10-03T08:01:35.239Z,15.00
2022-10-03T08:04:40.927Z,15.90
2022-10-03T08:07:38.728Z,16.80
2022-10-03T08:10:34.483Z,16.30
2022-10-03T08:13:28.813Z,17.00
2022-10-03T08:16:12.967Z,16.60
2022-10-03T08:19:23.822Z,17.10
2022-10-03T08:22:06.174Z,17.40
2022-10-03T08:25:02.719Z,17.70
2022-10-03T08:27:47.646Z,17.30
2022-10-03T08:30:42.499Z,18.30
2022-10-03T08:33:31.915Z,18.10
2022-10-03T08:36:38.521Z,18.30
2022-10-03T08:39:27.557Z,18.50
2022-10-03T08:42:24.145Z,19.00
2022-10-03T08:45:05.690Z,18.80
2022-10-03T08:48:01.510Z,19.10
2022-10-03T08:50:55.578Z,18.30
2022-10-03T08:53:54.037Z,18.10
2022-10-03T08:56:28.193Z,19.20
2022-10-03T08:59:45.467Z,20.00
2022-10-03T09:03:20.103Z,19.70
2022-10-03T09:06:24.951Z,20.30
2022-10-03T09:09:19.813Z,19.90
2022-10-03T09:12:31.734Z,19.80
2022-10-03T09:15:41.869Z,19.10
2022-10-03T09:18:38.758Z,19.60
2022-10-03T09:21:36.411Z,19.60
2022-10-03T09:24:51.609Z,19.30
2022-10-03T09:27:34.732Z,19.90
2022-10-03T09:30:24.166Z,19.80
2022-10-03T09:33:43.245Z,19.00
2022-10-03T09:36:31.628Z,19.00
2022-10-03T09:39:53.223Z,18.50
2022-10-03T09:43:00.007Z,18.50
2022-10-03T09:46:19.284Z,18.20
2022-10-03T09:49:13.493Z,17.90
2022-10-03T09:51:52.467Z,17.90
2022-10-03T09:54:45.276Z,17.90
2022-10-03T09:57:58.619Z,17.60
2022-10-03T10:00:31.778Z,17.50
2022-10-03T10:03:23.226Z,17.60
2022-10-03T10:06:04.721Z,17.50
2022-10-03T10:08:56.809Z,17.30
2022-10-03T10:11:37.522Z,17.20
2022-10-03T10:14:30.170Z,17.40
2022-10-03T10:17:45.153Z,17.30
2022-10-03T10:20:37.103Z,17.60
2022-10-03T10:23:37.985Z,17.60
2022-10-03T10:26:42.110Z,17.60
2022-10-03T10:29:37.198Z,17.70
2022-10-03T10:32:49.979Z,17.70
2022-10-03T10:35:56.869Z,17.50
2022-10-03T10:38:35.585Z,17.70
2022-10-03T10:41:41.592Z,18.20
2022-10-03T10:44:58.185Z,18.70
2022-10-03T10:48:03.229Z,19.30
2022-10-03T10:51:19.489Z,18.90
2022-10-03T10:57:09.562Z,19.00
2022-10-03T11:00:10.889Z,19.20
2022-10-03T11:03:32.612Z,19.40
2022-10-03T11:06:37.457Z,18.90
2022-10-03T11:09:29.567Z,18.60
2022-10-03T11:12:34.934Z,18.60
2022-10-03T11:15:52.286Z,18.40
2022-10-03T11:19:17.593Z,18.80
2022-10-03T11:22:30.391Z,19.30
2022-10-03T11:25:37.750Z,19.20
2022-10-03T11:28:47.780Z,19.80
2022-10-03T11:31:52.843Z,19.00
2022-10-03T11:35:06.555Z,19.50
2022-10-03T11:37:41.680Z,19.50
2022-10-03T11:40:32.468Z,19.80
2022-10-03T11:43:32.858Z,19.40
2022-10-03T11:46:20.970Z,19.10
2022-10-03T11:48:55.158Z,18.70
2022-10-03T11:51:41.719Z,19.00
2022-10-03T11:54:31.049Z,18.70
2022-10-03T11:57:06.913Z,18.70
2022-10-03T11:59:54.704Z,18.40
2022-10-03T12:02:52.522Z,18.50
2022-10-03T12:05:30.991Z,18.40
2022-10-03T12:08:34.761Z,18.10
2022-10-03T12:11:14.249Z,17.70
2022-10-03T12:14:07.357Z,18.00
2022-10-03T12:16:57.869Z,18.20
2022-10-03T12:19:32.316Z,18.70
2022-10-03T12:22:09.728Z,18.20
2022-10-03T12:24:43.987Z,18.30
2022-10-03T12:27:20.874Z,18.30
2022-10-03T12:29:58.788Z,18.40
2022-10-03T12:32:37.321Z,18.70
2022-10-03T12:35:29.787Z,18.70
2022-10-03T12:38:11.607Z,18.60
2022-10-03T12:40:44.426Z,19.00
2022-10-03T12:43:31.843Z,18.90
2022-10-03T12:46:04.150Z,18.90
2022-10-03T12:48:48.479Z,18.80
2022-10-03T12:51:26.890Z,19.00
2022-10-03T12:54:08.279Z,18.90
2022-10-03T12:56:48.923Z,19.10
2022-10-03T12:59:38.778Z,19.10
2022-10-03T13:02:27.948Z,19.10
2022-10-03T13:05:36.242Z,19.00
2022-10-03T13:08:12.625Z,18.70
2022-10-03T13:10:43.600Z,18.70
2022-10-03T13:13:26.410Z,18.60
2022-10-03T13:16:21.177Z,18.10
2022-10-03T13:18:54.767Z,17.90
2022-10-03T13:21:47.807Z,17.70
2022-10-03T13:24:27.532Z,17.90
2022-10-03T13:27:10.759Z,17.50
2022-10-03T13:29:42.634Z,17.70
2022-10-03T13:32:17.056Z,17.40
2022-10-03T13:34:57.222Z,17.20
2022-10-03T13:37:34.099Z,16.90
2022-10-03T13:40:07.926Z,17.20
2022-10-03T13:42:42.232Z,16.80
2022-10-03T13:45:17.346Z,16.90
2022-10-03T13:47:49.483Z,16.80
2022-10-03T13:50:21.626Z,17.20
2022-10-03T13:52:54.671Z,17.40
2022-10-03T13:55:32.573Z,17.60
2022-10-03T13:58:31.606Z,17.40
2022-10-03T14:01:27.398Z,17.70
2022-10-03T14:04:33.510Z,17.70
2022-10-03T14:07:09.179Z,17.50
2022-10-03T14:09:52.970Z,17.80
2022-10-03T14:12:51.124Z,17.70
2022-10-03T14:15:36.062Z,17.40
2022-10-03T14:18:20.911Z,17.30
2022-10-03T14:21:17.583Z,17.50
2022-10-03T14:23:52.746Z,17.50
2022-10-03T14:26:29.675Z,17.30
2022-10-03T14:29:04.290Z,17.10
2022-10-03T14:31:39.482Z,16.90
2022-10-03T14:34:21.929Z,16.90
2022-10-03T14:36:54.917Z,16.60
2022-10-03T14:39:36.748Z,16.40
2022-10-03T14:42:38.934Z,16.50
2022-10-03T14:45:10.894Z,16.70
2022-10-03T14:47:41.644Z,16.60
2022-10-03T14:50:19.482Z,16.30
2022-10-03T14:52:54.471Z,16.40
2022-10-03T14:55:30.008Z,16.60
2022-10-03T14:58:10.838Z,16.60
2022-10-03T15:00:44.386Z,16.60
2022-10-03T15:03:30.580Z,16.80
2022-10-03T15:06:37.789Z,16.70
2022-10-03T15:09:11.793Z,16.70
2022-10-03T15:11:48.333Z,16.50
2022-10-03T15:14:17.665Z,16.50
2022-10-03T15:16:50.778Z,16.50
2022-10-03T15:19:23.036Z,16.50
2022-10-03T15:21:54.152Z,16.30
2022-10-03T15:24:26.662Z,16.40
2022-10-03T15:26:59.785Z,16.40
2022-10-03T15:29:28.847Z,16.50
2022-10-03T15:31:58.649Z,16.60
2022-10-03T15:34:31.777Z,16.50
2022-10-03T15:37:07.172Z,16.60
2022-10-03T15:39:40.412Z,16.40
2022-10-03T15:42:23.779Z,16.40
2022-10-03T15:44:54.770Z,16.30
2022-10-03T15:47:27.360Z,16.30
2022-10-03T15:50:00.453Z,16.40
2022-10-03T15:52:40.208Z,16.30
2022-10-03T15:55:15.331Z,16.50
2022-10-03T15:57:47.451Z,16.30
2022-10-03T16:00:24.687Z,16.40
2022-10-03T16:03:00.226Z,16.10
2022-10-03T16:05:28.847Z,16.10
2022-10-03T16:08:07.921Z,16.10
2022-10-03T16:10:40.474Z,16.10
2022-10-03T16:13:24.165Z,16.10
2022-10-03T16:16:21.153Z,16.20
2022-10-03T16:18:57.747Z,16.00
2022-10-03T16:21:44.459Z,16.00
2022-10-03T16:24:29.735Z,16.10
2022-10-03T16:27:06.278Z,16.00
2022-10-03T16:29:38.488Z,16.10
2022-10-03T16:32:09.538Z,16.00
2022-10-03T16:34:43.341Z,15.90
2022-10-03T16:37:19.505Z,16.00
2022-10-03T16:39:58.707Z,15.70
2022-10-03T16:42:31.257Z,15.80
2022-10-03T16:45:02.102Z,15.90
2022-10-03T16:47:35.536Z,16.00
2022-10-03T16:50:22.625Z,15.90
2022-10-03T16:52:53.343Z,15.90
2022-10-03T16:55:29.660Z,15.70
2022-10-03T16:58:00.714Z,15.60
2022-10-03T17:00:39.192Z,15.70
2022-10-03T17:03:18.818Z,15.70
2022-10-03T17:05:49.430Z,15.60
2022-10-03T17:08:40.819Z,15.60
2022-10-03T17:11:18.301Z,15.40
2022-10-03T17:13:51.053Z,15.40
2022-10-03T17:16:28.536Z,15.60
2022-10-03T17:19:14.865Z,15.70
2022-10-03T17:21:52.403Z,15.50
2022-10-03T17:24:31.495Z,15.40
2022-10-03T17:27:07.672Z,15.20
2022-10-03T17:29:41.859Z,15.30
2022-10-03T17:32:20.652Z,15.20
2022-10-03T17:34:55.423Z,15.20
2022-10-03T17:38:01.843Z,15.10
2022-10-03T17:40:51.842Z,15.20
2022-10-03T17:43:31.380Z,15.20
2022-10-03T17:46:06.398Z,15.20
2022-10-03T17:48:40.368Z,15.20
2022-10-03T17:51:33.275Z,15.30
2022-10-03T17:54:05.441Z,15.10
2022-10-03T17:56:35.448Z,15.10
2022-10-03T17:59:09.127Z,15.20
2022-10-03T18:01:40.967Z,15.10
2022-10-03T18:04:18.567Z,15.20
2022-10-03T18:06:49.295Z,15.10
2022-10-03T18:09:40.700Z,15.20
2022-10-03T18:12:22.658Z,15.10
2022-10-03T18:15:16.227Z,15.00
2022-10-03T18:18:00.566Z,14.90
2022-10-03T18:20:44.068Z,14.90
2022-10-03T18:23:53.244Z,15.00
2022-10-03T18:26:28.269Z,15.00
2022-10-03T18:29:07.034Z,15.00
2022-10-03T18:31:41.245Z,15.00
2022-10-03T18:34:15.091Z,14.90
2022-10-03T18:36:46.786Z,14.90
2022-10-03T18:39:18.479Z,14.90
2022-10-03T18:41:52.258Z,14.90
2022-10-03T18:44:22.087Z,14.80
2022-10-03T18:47:04.999Z,14.80
2022-10-03T18:49:35.409Z,14.70
2022-10-03T18:52:10.798Z,14.70
2022-10-03T18:54:51.343Z,14.60
2022-10-03T18:57:24.720Z,14.40
2022-10-03T18:59:57.557Z,14.60
2022-10-03T19:02:39.267Z,14.60
2022-10-03T19:05:15.467Z,14.60
2022-10-03T19:07:51.077Z,14.50
2022-10-03T19:10:32.922Z,14.50
2022-10-03T19:13:05.627Z,14.70
2022-10-03T19:15:46.932Z,14.60
2022-10-03T19:18:26.317Z,14.70
2022-10-03T19:20:57.545Z,14.60
2022-10-03T19:23:30.870Z,14.40
2022-10-03T19:26:03.068Z,14.40
2022-10-03T19:28:33.815Z,14.30
2022-10-03T19:31:06.794Z,14.30
2022-10-03T19:33:43.398Z,14.30
2022-10-03T19:36:17.547Z,14.20
2022-10-03T19:38:47.946Z,14.20
2022-10-03T19:41:28.197Z,14.20
2022-10-03T19:43:57.321Z,14.10
2022-10-03T19:46:53.257Z,14.10
2022-10-03T19:49:33.575Z,14.20
2022-10-03T19:52:19.096Z,14.00
2022-10-03T19:54:54.527Z,14.00
2022-10-03T19:57:28.294Z,13.90
2022-10-03T19:59:59.325Z,14.00
2022-10-03T20:02:29.886Z,13.90
2022-10-03T20:04:59.594Z,13.90
2022-10-03T20:07:44.267Z,13.70
2022-10-03T20:10:45.091Z,13.80
2022-10-03T20:13:13.374Z,13.80
2022-10-03T20:15:45.374Z,13.80
2022-10-03T20:18:20.959Z,13.80
2022-10-03T20:20:54.086Z,13.80
2022-10-03T20:23:26.394Z,13.60
2022-10-03T20:25:59.426Z,13.60
2022-10-03T20:28:42.734Z,13.60
2022-10-03T20:31:11.831Z,13.50
2022-10-03T20:33:40.055Z,13.50
2022-10-03T20:36:17.243Z,13.40
2022-10-03T20:39:01.079Z,13.30
2022-10-03T20:41:37.267Z,13.40
2022-10-03T20:44:14.977Z,13.40
2022-10-03T20:46:47.379Z,13.40
2022-10-03T20:49:29.011Z,13.30
2022-10-03T20:52:04.015Z,13.20
2022-10-03T20:54:37.418Z,13.20
2022-10-03T20:57:14.954Z,13.20
2022-10-03T20:59:47.685Z,13.10
2022-10-03T21:02:28.425Z,13.10
2022-10-03T21:05:00.898Z,13.10
2022-10-03T21:07:49.827Z,13.20
2022-10-03T21:10:28.049Z,13.00
2022-10-03T21:13:00.429Z,12.90
2022-10-03T21:15:39.167Z,12.80
2022-10-03T21:18:08.430Z,12.80
2022-10-03T21:20:39.538Z,12.90
2022-10-03T21:23:16.926Z,12.90
2022-10-03T21:25:45.539Z,12.70
2022-10-03T21:28:32.357Z,12.80
2022-10-03T21:31:32.178Z,12.80
2022-10-03T21:34:07.499Z,12.70
2022-10-03T21:36:40.692Z,12.70
2022-10-03T21:39:18.874Z,12.60
2022-10-03T21:41:59.645Z,12.70
2022-10-03T21:44:40.078Z,12.70
2022-10-03T21:47:21.611Z,12.70
2022-10-03T21:49:56.983Z,12.70
2022-10-03T21:52:40.043Z,12.50
2022-10-03T21:55:45.334Z,12.60
2022-10-03T21:58:26.338Z,12.60
2022-10-03T22:01:03.155Z,12.60
2022-10-03T22:03:37.062Z,12.50
2022-10-03T22:06:13.355Z,12.50
2022-10-03T22:08:44.804Z,12.50
2022-10-03T22:11:25.893Z,12.40
2022-10-03T22:14:03.633Z,12.40
2022-10-03T22:16:38.922Z,12.40
2022-10-03T22:19:23.421Z,12.20
2022-10-03T22:22:07.111Z,12.10
2022-10-03T22:24:47.714Z,12.00
2022-10-03T22:27:23.546Z,12.00
2022-10-03T22:30:01.738Z,12.00
2022-10-03T22:32:37.491Z,12.00
2022-10-03T22:35:21.786Z,12.10
2022-10-03T22:37:50.169Z,12.00
2022-10-03T22:40:18.539Z,12.00
2022-10-03T22:42:53.474Z,12.10
2022-10-03T22:45:24.341Z,12.00
2022-10-03T22:47:57.298Z,12.00
2022-10-03T22:50:29.233Z,12.00
2022-10-03T22:52:59.437Z,12.00
2022-10-03T22:55:29.230Z,12.00
2022-10-03T22:58:00.885Z,12.00
2022-10-03T23:00:33.343Z,11.90
2022-10-03T23:03:09.359Z,11.90
2022-10-03T23:06:17.927Z,11.90
2022-10-03T23:08:57.075Z,11.80
2022-10-03T23:11:27.966Z,11.80
2022-10-03T23:13:59.884Z,11.80
2022-10-03T23:16:44.482Z,11.70
2022-10-03T23:19:24.077Z,11.70
2022-10-03T23:21:53.364Z,11.70
2022-10-03T23:24:28.650Z,11.80
2022-10-03T23:27:26.189Z,11.80
2022-10-03T23:30:52.337Z,11.80
2022-10-03T23:33:51.194Z,11.70
2022-10-03T23:36:23.412Z,11.60
2022-10-03T23:39:29.195Z,11.70
2022-10-03T23:42:00.994Z,11.70
2022-10-03T23:44:40.279Z,11.60
2022-10-03T23:47:13.416Z,11.50
2022-10-03T23:49:44.790Z,11.50
2022-10-03T23:52:19.658Z,11.60
2022-10-03T23:54:49.533Z,11.50
2022-10-03T23:57:20.050Z,11.60
2022-10-03T23:59:49.438Z,11.60
